createdAt,value
2023-03-13T00:00:26.594Z,1.49
2023-03-13T00:02:10.518Z,1.54
2023-03-13T00:03:54.497Z,1.54
2023-03-13T00:05:37.785Z,1.54
2023-03-13T00:07:12.852Z,1.50
2023-03-13T00:09:05.275Z,1.42
2023-03-13T00:10:26.652Z,1.38
2023-03-13T00:11:54.508Z,1.41
2023-03-13T00:13:38.423Z,1.41
2023-03-13T00:15:08.438Z,1.43
2023-03-13T00:16:42.931Z,1.45
2023-03-13T00:18:26.332Z,1.44
2023-03-13T00:20:03.937Z,1.45
2023-03-13T00:21:43.149Z,1.47
2023-03-13T00:23:13.202Z,1.51
2023-03-13T00:24:59.690Z,1.47
2023-03-13T00:26:19.974Z,1.48
2023-03-13T00:27:42.843Z,1.49
2023-03-13T00:29:12.793Z,1.47
2023-03-13T00:30:47.973Z,1.45
2023-03-13T00:32:22.711Z,1.32
2023-03-13T00:33:59.160Z,1.33
2023-03-13T00:35:19.756Z,1.29
2023-03-13T00:36:54.699Z,1.23
2023-03-13T00:38:16.527Z,1.18
2023-03-13T00:39:39.085Z,1.19
2023-03-13T00:41:13.829Z,1.18
2023-03-13T00:42:38.857Z,1.21
2023-03-13T00:44:04.230Z,1.24
2023-03-13T00:45:31.675Z,1.24
2023-03-13T00:46:59.629Z,1.20
2023-03-13T00:48:33.668Z,1.22
2023-03-13T00:50:17.281Z,1.19
2023-03-13T00:51:39.385Z,1.17
2023-03-13T00:53:14.464Z,1.15
2023-03-13T00:54:39.564Z,1.15
2023-03-13T00:56:11.769Z,1.16
2023-03-13T00:57:39.499Z,1.17
2023-03-13T00:59:04.246Z,1.25
2023-03-13T01:00:25.397Z,1.22
2023-03-13T01:01:57.303Z,1.23
2023-03-13T01:03:18.135Z,1.26
2023-03-13T01:04:40.762Z,1.29
2023-03-13T01:06:19.960Z,1.31
2023-03-13T01:08:01.307Z,1.33
2023-03-13T01:09:21.749Z,1.33
2023-03-13T01:10:44.248Z,1.37
2023-03-13T01:12:07.101Z,1.35
2023-03-13T01:13:38.695Z,1.36
2023-03-13T01:14:59.143Z,1.39
2023-03-13T01:16:19.236Z,1.44
2023-03-13T01:17:44.191Z,1.40
2023-03-13T01:19:06.160Z,1.39
2023-03-13T01:20:26.007Z,1.35
2023-03-13T01:21:46.424Z,1.33
2023-03-13T01:23:09.010Z,1.32
2023-03-13T01:24:39.345Z,1.30
2023-03-13T01:25:59.787Z,1.32
2023-03-13T01:27:19.863Z,1.32
2023-03-13T01:28:52.762Z,1.32
2023-03-13T01:30:16.073Z,1.29
2023-03-13T01:31:36.641Z,1.31
2023-03-13T01:33:07.060Z,1.34
2023-03-13T01:34:29.350Z,1.34
2023-03-13T01:35:59.107Z,1.36
2023-03-13T01:37:22.033Z,1.35
2023-03-13T01:38:46.959Z,1.33
2023-03-13T01:40:30.436Z,1.35
2023-03-13T01:42:05.825Z,1.40
2023-03-13T01:43:33.233Z,1.44
2023-03-13T01:45:05.221Z,1.41
2023-03-13T01:46:27.143Z,1.36
2023-03-13T01:48:47.106Z,1.33
2023-03-13T01:50:08.857Z,1.39
2023-03-13T01:51:44.210Z,1.34
2023-03-13T01:53:14.443Z,1.35
2023-03-13T01:54:48.832Z,1.26
2023-03-13T01:56:13.241Z,1.34
2023-03-13T01:57:36.076Z,1.35
2023-03-13T01:58:56.811Z,1.36
2023-03-13T02:00:19.261Z,1.35
2023-03-13T02:01:40.355Z,1.30
2023-03-13T02:03:03.126Z,1.34
2023-03-13T02:04:23.608Z,1.36
2023-03-13T02:05:55.964Z,1.37
2023-03-13T02:07:30.980Z,1.39
2023-03-13T02:08:52.013Z,1.43
2023-03-13T02:10:12.227Z,1.46
2023-03-13T02:11:46.877Z,1.49
2023-03-13T02:13:19.180Z,1.48
2023-03-13T02:14:51.498Z,1.44
2023-03-13T02:16:23.773Z,1.46
2023-03-13T02:18:00.203Z,1.49
2023-03-13T02:19:32.265Z,1.47
2023-03-13T02:21:00.369Z,1.47
2023-03-13T02:22:31.822Z,1.46
2023-03-13T02:24:06.769Z,1.47
2023-03-13T02:25:27.181Z,1.45
2023-03-13T02:27:09.061Z,1.49
2023-03-13T02:28:58.108Z,1.52
2023-03-13T02:30:26.211Z,1.57
2023-03-13T02:31:46.572Z,1.56
2023-03-13T02:33:14.109Z,1.63
2023-03-13T02:34:34.581Z,1.64
2023-03-13T02:36:06.852Z,1.66
2023-03-13T02:37:38.686Z,1.67
2023-03-13T02:39:13.393Z,1.68
2023-03-13T02:40:45.491Z,1.66
2023-03-13T02:42:25.890Z,1.69
2023-03-13T02:43:58.236Z,1.74
2023-03-13T02:45:28.786Z,1.71
2023-03-13T02:47:16.381Z,1.67
2023-03-13T02:49:08.485Z,1.76
2023-03-13T02:50:40.682Z,1.80
2023-03-13T02:52:19.931Z,1.83
2023-03-13T02:53:49.901Z,1.89
2023-03-13T02:55:21.712Z,1.90
2023-03-13T02:57:00.982Z,1.90
2023-03-13T02:58:50.464Z,1.93
2023-03-13T03:00:26.349Z,1.92
2023-03-13T03:02:00.382Z,1.98
2023-03-13T03:03:28.088Z,2.02
2023-03-13T03:05:11.741Z,2.01
2023-03-13T03:06:55.234Z,2.06
2023-03-13T03:08:23.061Z,2.04
2023-03-13T03:10:06.595Z,2.05
2023-03-13T03:11:38.509Z,2.13
2023-03-13T03:13:03.773Z,2.12
2023-03-13T03:14:37.745Z,2.12
2023-03-13T03:16:11.009Z,2.13
2023-03-13T03:17:42.999Z,2.12
2023-03-13T03:19:10.780Z,2.13
2023-03-13T03:20:58.770Z,2.15
2023-03-13T03:22:42.736Z,2.18
2023-03-13T03:24:21.676Z,2.18
2023-03-13T03:25:53.832Z,2.18
2023-03-13T03:27:26.003Z,2.19
2023-03-13T03:29:10.394Z,2.21
2023-03-13T03:30:54.156Z,2.21
2023-03-13T03:32:37.496Z,2.23
2023-03-13T03:34:12.244Z,2.28
2023-03-13T03:35:45.008Z,2.30
2023-03-13T03:37:24.402Z,2.32
2023-03-13T03:38:44.867Z,2.35
2023-03-13T03:40:29.447Z,2.40
2023-03-13T03:41:59.551Z,2.42
2023-03-13T03:43:22.138Z,2.45
2023-03-13T03:44:50.352Z,2.47
2023-03-13T03:46:33.934Z,2.46
2023-03-13T03:48:17.834Z,2.47
2023-03-13T03:49:52.397Z,2.48
2023-03-13T03:51:24.553Z,2.49
2023-03-13T03:53:08.283Z,2.49
2023-03-13T03:54:40.374Z,2.53
2023-03-13T03:56:08.777Z,2.61
2023-03-13T03:57:44.081Z,2.62
2023-03-13T03:59:14.826Z,2.63
2023-03-13T04:01:02.227Z,2.64
2023-03-13T04:02:46.913Z,2.63
2023-03-13T04:04:30.592Z,2.67
2023-03-13T04:06:02.322Z,2.68
2023-03-13T04:07:34.112Z,2.68
2023-03-13T04:09:17.856Z,2.72
2023-03-13T04:10:51.805Z,2.75
2023-03-13T04:12:19.122Z,2.76
2023-03-13T04:14:00.329Z,2.77
2023-03-13T04:15:52.987Z,2.80
2023-03-13T04:17:26.860Z,2.84
2023-03-13T04:18:54.535Z,2.86
2023-03-13T04:20:37.915Z,2.90
2023-03-13T04:21:58.437Z,2.93
2023-03-13T04:23:33.179Z,2.97
2023-03-13T04:24:56.712Z,3.01
2023-03-13T04:26:40.303Z,3.05
2023-03-13T04:28:23.646Z,3.08
2023-03-13T04:30:08.150Z,3.08
2023-03-13T04:31:51.137Z,3.07
2023-03-13T04:33:39.176Z,3.19
2023-03-13T04:35:34.561Z,3.27
2023-03-13T04:38:06.614Z,3.20
2023-03-13T04:39:33.230Z,3.28
2023-03-13T04:41:36.139Z,3.29
2023-03-13T04:43:26.106Z,3.27
2023-03-13T04:45:14.899Z,3.24
2023-03-13T04:46:49.145Z,3.24
2023-03-13T04:48:50.593Z,3.27
2023-03-13T04:51:12.949Z,3.27
2023-03-13T04:53:44.561Z,3.32
2023-03-13T04:55:36.757Z,3.37
2023-03-13T04:58:11.972Z,3.37
2023-03-13T04:59:48.020Z,3.38
2023-03-13T05:01:22.583Z,3.39
2023-03-13T05:03:17.365Z,3.39
2023-03-13T05:05:39.833Z,3.45
2023-03-13T05:08:12.124Z,3.48
2023-03-13T05:10:01.089Z,3.48
2023-03-13T05:12:00.996Z,3.45
2023-03-13T05:14:01.247Z,3.49
2023-03-13T05:15:56.604Z,3.56
2023-03-13T05:18:26.634Z,3.62
2023-03-13T05:20:58.920Z,3.65
2023-03-13T05:23:00.005Z,3.60
2023-03-13T05:25:09.765Z,3.60
2023-03-13T05:27:08.766Z,3.63
2023-03-13T05:29:19.027Z,3.72
2023-03-13T05:31:44.490Z,3.76
2023-03-13T05:33:23.914Z,3.81
2023-03-13T05:35:38.696Z,3.85
2023-03-13T05:37:49.317Z,3.84
2023-03-13T05:39:28.424Z,3.84
2023-03-13T05:42:04.017Z,3.83
2023-03-13T05:43:38.627Z,3.88
2023-03-13T05:45:27.384Z,3.91
2023-03-13T05:47:06.019Z,3.88
2023-03-13T05:48:49.073Z,3.93
2023-03-13T05:50:25.009Z,3.94
2023-03-13T05:52:16.484Z,3.95
2023-03-13T05:54:38.756Z,3.98
2023-03-13T05:56:32.198Z,3.97
2023-03-13T05:58:58.130Z,3.98
2023-03-13T06:00:57.995Z,4.00
2023-03-13T06:02:54.174Z,4.03
2023-03-13T06:04:45.416Z,4.03
2023-03-13T06:06:20.639Z,4.06
2023-03-13T06:08:04.255Z,4.12
2023-03-13T06:09:36.822Z,4.15
2023-03-13T06:11:20.329Z,4.17
2023-03-13T06:13:17.156Z,4.16
2023-03-13T06:14:54.976Z,4.26
2023-03-13T06:16:18.036Z,4.28
2023-03-13T06:18:03.458Z,4.31
2023-03-13T06:19:48.124Z,4.32
2023-03-13T06:21:20.335Z,4.37
2023-03-13T06:23:04.964Z,4.40
2023-03-13T06:24:49.064Z,4.44
2023-03-13T06:26:21.051Z,4.48
2023-03-13T06:27:41.989Z,4.47
2023-03-13T06:29:25.798Z,4.55
2023-03-13T06:31:10.157Z,4.58
2023-03-13T06:32:49.897Z,4.58
2023-03-13T06:34:33.786Z,4.60
2023-03-13T06:36:07.501Z,4.64
2023-03-13T06:37:59.052Z,4.68
2023-03-13T06:39:33.661Z,4.70
2023-03-13T06:41:19.388Z,4.74
2023-03-13T06:43:03.607Z,4.80
2023-03-13T06:44:47.948Z,4.84
2023-03-13T06:46:08.644Z,4.88
2023-03-13T06:47:31.544Z,4.91
2023-03-13T06:49:11.978Z,4.92
2023-03-13T06:50:57.084Z,4.98
2023-03-13T06:52:44.210Z,5.04
2023-03-13T06:54:16.267Z,5.08
2023-03-13T06:55:36.692Z,5.16
2023-03-13T06:57:13.520Z,5.19
2023-03-13T06:58:47.766Z,5.19
2023-03-13T07:00:19.861Z,5.25
2023-03-13T07:01:42.945Z,5.25
2023-03-13T07:03:17.622Z,5.33
2023-03-13T07:05:04.696Z,5.40
2023-03-13T07:06:36.243Z,5.41
2023-03-13T07:08:15.542Z,5.44
2023-03-13T07:10:03.943Z,5.46
2023-03-13T07:11:48.283Z,5.48
2023-03-13T07:13:32.843Z,5.50
2023-03-13T07:15:04.605Z,5.57
2023-03-13T07:16:36.374Z,5.66
2023-03-13T07:18:08.601Z,5.77
2023-03-13T07:20:02.152Z,5.68
2023-03-13T07:21:46.125Z,5.86
2023-03-13T07:23:31.858Z,5.89
2023-03-13T07:25:04.089Z,5.93
2023-03-13T07:26:38.102Z,5.96
2023-03-13T07:28:21.884Z,5.99
2023-03-13T07:30:03.000Z,6.03
2023-03-13T07:31:35.009Z,6.06
2023-03-13T07:33:20.842Z,6.11
2023-03-13T07:35:05.707Z,6.11
2023-03-13T07:36:30.270Z,6.18
2023-03-13T07:38:14.615Z,6.19
2023-03-13T07:40:08.011Z,6.20
2023-03-13T07:41:40.095Z,6.28
2023-03-13T07:43:14.951Z,6.36
2023-03-13T07:45:08.817Z,6.30
2023-03-13T07:46:41.511Z,6.47
2023-03-13T07:48:25.271Z,6.54
2023-03-13T07:50:11.352Z,6.60
2023-03-13T07:51:55.417Z,6.63
2023-03-13T07:53:39.779Z,6.68
2023-03-13T07:55:19.883Z,6.73
2023-03-13T07:57:09.141Z,6.75
2023-03-13T07:58:31.658Z,6.81
2023-03-13T08:00:15.968Z,6.78
2023-03-13T08:01:47.844Z,6.85
2023-03-13T08:03:31.902Z,6.85
2023-03-13T08:05:16.475Z,6.90
2023-03-13T08:06:50.936Z,6.94
2023-03-13T08:08:30.406Z,7.01
2023-03-13T08:10:02.983Z,7.06
2023-03-13T08:11:43.811Z,7.15
2023-03-13T08:13:36.946Z,7.23
2023-03-13T08:15:15.250Z,7.29
2023-03-13T08:16:40.397Z,7.34
2023-03-13T08:18:13.074Z,7.43
2023-03-13T08:19:57.153Z,7.49
2023-03-13T08:21:48.559Z,7.58
2023-03-13T08:23:20.774Z,7.62
2023-03-13T08:25:04.901Z,7.64
2023-03-13T08:26:49.005Z,7.71
2023-03-13T08:28:21.271Z,7.78
2023-03-13T08:30:02.953Z,7.84
2023-03-13T08:31:48.674Z,7.86
2023-03-13T08:33:12.223Z,7.87
2023-03-13T08:34:55.932Z,7.89
2023-03-13T08:36:28.178Z,7.97
2023-03-13T08:38:12.220Z,8.05
2023-03-13T08:40:04.685Z,8.19
2023-03-13T08:41:57.938Z,8.21
2023-03-13T08:43:41.594Z,8.26
2023-03-13T08:45:04.625Z,8.28
2023-03-13T08:46:57.954Z,8.35
2023-03-13T08:48:45.293Z,8.39
2023-03-13T08:50:17.507Z,8.47
2023-03-13T08:52:01.308Z,8.52
2023-03-13T08:53:45.133Z,8.55
2023-03-13T08:55:31.257Z,8.62
2023-03-13T08:57:16.008Z,8.60
2023-03-13T08:59:01.656Z,8.69
2023-03-13T09:00:33.632Z,8.73
2023-03-13T09:02:18.036Z,8.76
2023-03-13T09:04:08.200Z,8.78
2023-03-13T09:05:38.554Z,8.76
2023-03-13T09:07:08.843Z,8.85
2023-03-13T09:08:29.213Z,8.88
2023-03-13T09:09:51.974Z,8.91
2023-03-13T09:11:35.677Z,8.97
2023-03-13T09:13:08.404Z,8.98
2023-03-13T09:14:39.997Z,8.98
2023-03-13T09:16:12.274Z,9.01
2023-03-13T09:17:51.694Z,9.03
2023-03-13T09:19:12.405Z,9.05
2023-03-13T09:20:48.890Z,9.10
2023-03-13T09:22:21.064Z,9.14
2023-03-13T09:24:00.512Z,9.16
2023-03-13T09:25:23.326Z,9.21
2023-03-13T09:27:07.221Z,9.20
2023-03-13T09:28:42.184Z,9.20
2023-03-13T09:30:26.078Z,9.32
2023-03-13T09:32:06.305Z,9.40
2023-03-13T09:33:28.691Z,9.47
2023-03-13T09:34:49.264Z,9.59
2023-03-13T09:36:09.774Z,9.69
2023-03-13T09:37:37.646Z,9.76
2023-03-13T09:39:12.929Z,9.87
2023-03-13T09:41:04.863Z,9.90
2023-03-13T09:42:26.166Z,9.99
2023-03-13T09:43:46.719Z,10.08
2023-03-13T09:45:39.895Z,10.10
2023-03-13T09:47:32.993Z,10.17
2023-03-13T09:49:18.421Z,10.23
2023-03-13T09:50:58.263Z,10.25
2023-03-13T09:52:30.122Z,10.32
2023-03-13T09:54:02.174Z,10.41
2023-03-13T09:55:25.293Z,10.33
2023-03-13T09:56:48.442Z,10.40
2023-03-13T09:58:27.602Z,10.37
2023-03-13T10:00:11.748Z,10.37
2023-03-13T10:01:55.261Z,10.46
2023-03-13T10:03:15.903Z,10.53
2023-03-13T10:04:36.251Z,10.54
2023-03-13T10:06:19.962Z,10.52
2023-03-13T10:08:05.302Z,10.54
2023-03-13T10:09:25.156Z,10.46
2023-03-13T10:11:00.941Z,10.50
2023-03-13T10:12:23.578Z,10.52
2023-03-13T10:13:46.386Z,10.61
2023-03-13T10:15:18.464Z,10.69
2023-03-13T10:16:38.833Z,10.78
2023-03-13T10:18:11.103Z,10.91
2023-03-13T10:19:50.879Z,10.96
2023-03-13T10:21:22.419Z,10.96
2023-03-13T10:23:03.937Z,11.02
2023-03-13T10:24:48.426Z,11.07
2023-03-13T10:26:31.942Z,11.08
2023-03-13T10:28:15.576Z,11.06
2023-03-13T10:29:37.965Z,11.11
2023-03-13T10:31:21.837Z,11.09
2023-03-13T10:33:08.187Z,11.07
2023-03-13T10:34:47.147Z,11.03
2023-03-13T10:36:31.091Z,10.96
2023-03-13T10:37:51.742Z,10.92
2023-03-13T10:39:14.530Z,10.89
2023-03-13T10:40:58.297Z,10.75
2023-03-13T10:42:32.763Z,10.75
2023-03-13T10:44:04.755Z,10.82
2023-03-13T10:45:38.685Z,10.83
2023-03-13T10:47:13.081Z,10.84
2023-03-13T10:48:52.524Z,10.90
2023-03-13T10:50:15.030Z,10.96
2023-03-13T10:51:51.400Z,11.02
2023-03-13T10:53:23.699Z,11.11
2023-03-13T10:55:03.534Z,11.18
2023-03-13T10:56:37.736Z,11.28
2023-03-13T10:58:21.269Z,11.31
2023-03-13T10:59:41.847Z,11.36
2023-03-13T11:01:05.006Z,11.38
2023-03-13T11:02:45.377Z,11.36
2023-03-13T11:04:08.522Z,11.38
2023-03-13T11:05:42.389Z,11.35
2023-03-13T11:07:17.719Z,11.36
2023-03-13T11:08:40.355Z,11.36
2023-03-13T11:10:24.456Z,11.37
2023-03-13T11:12:04.994Z,11.27
2023-03-13T11:13:37.990Z,11.41
2023-03-13T11:15:10.294Z,11.48
2023-03-13T11:16:49.622Z,11.46
2023-03-13T11:18:10.133Z,11.46
2023-03-13T11:19:51.049Z,11.47
2023-03-13T11:21:35.809Z,11.40
2023-03-13T11:22:59.013Z,11.44
2023-03-13T11:24:32.887Z,11.42
2023-03-13T11:26:05.232Z,11.44
2023-03-13T11:27:36.676Z,11.41
2023-03-13T11:29:08.774Z,11.33
2023-03-13T11:30:42.621Z,11.26
2023-03-13T11:32:26.259Z,11.25
2023-03-13T11:33:58.666Z,11.21
2023-03-13T11:35:47.090Z,11.19
2023-03-13T11:37:22.230Z,11.19
2023-03-13T11:39:10.957Z,11.23
2023-03-13T11:40:43.066Z,11.17
2023-03-13T11:42:14.967Z,11.13
2023-03-13T11:43:42.937Z,11.12
2023-03-13T11:45:03.539Z,11.08
2023-03-13T11:46:56.160Z,11.12
2023-03-13T11:48:21.188Z,11.07
2023-03-13T11:49:43.829Z,11.03
2023-03-13T11:51:20.815Z,11.03
2023-03-13T11:52:53.143Z,10.81
2023-03-13T11:54:28.502Z,10.76
2023-03-13T11:55:55.930Z,10.74
2023-03-13T11:57:42.225Z,10.64
2023-03-13T11:59:10.159Z,10.57
2023-03-13T12:00:42.257Z,10.52
2023-03-13T12:02:10.256Z,10.47
2023-03-13T12:03:30.700Z,10.35
2023-03-13T12:05:14.757Z,10.33
2023-03-13T12:06:37.314Z,10.25
2023-03-13T12:08:09.541Z,10.21
2023-03-13T12:09:29.708Z,10.15
2023-03-13T12:10:50.821Z,10.12
2023-03-13T12:12:34.517Z,10.12
2023-03-13T12:13:57.375Z,10.14
2023-03-13T12:15:19.294Z,10.12
2023-03-13T12:16:40.351Z,10.06
2023-03-13T12:18:12.313Z,10.09
2023-03-13T12:19:35.609Z,10.13
2023-03-13T12:21:07.594Z,10.14
2023-03-13T12:22:39.589Z,10.16
2023-03-13T12:24:11.994Z,10.15
2023-03-13T12:25:46.017Z,10.11
2023-03-13T12:27:06.729Z,10.14
2023-03-13T12:28:58.482Z,10.13
2023-03-13T12:30:30.384Z,10.08
2023-03-13T12:32:02.405Z,10.15
2023-03-13T12:33:24.214Z,10.11
2023-03-13T12:34:44.584Z,10.07
2023-03-13T12:36:16.347Z,10.01
2023-03-13T12:38:08.992Z,9.90
2023-03-13T12:39:40.798Z,9.80
2023-03-13T12:41:04.578Z,9.73
2023-03-13T12:42:38.758Z,9.69
2023-03-13T12:44:09.213Z,9.71
2023-03-13T12:45:47.559Z,9.66
2023-03-13T12:47:19.830Z,9.66
2023-03-13T12:48:42.390Z,9.61
2023-03-13T12:50:25.745Z,9.58
2023-03-13T12:52:14.966Z,9.46
2023-03-13T12:53:46.838Z,9.54
2023-03-13T12:55:30.629Z,9.52
2023-03-13T12:56:51.039Z,9.48
2023-03-13T12:58:19.187Z,9.50
2023-03-13T12:59:59.568Z,9.49
2023-03-13T13:01:31.630Z,9.47
2023-03-13T13:03:15.500Z,9.47
2023-03-13T13:04:47.622Z,9.51
2023-03-13T13:06:19.910Z,9.52
2023-03-13T13:07:40.125Z,9.55
2023-03-13T13:09:07.838Z,9.58
2023-03-13T13:10:40.794Z,9.61
2023-03-13T13:12:01.550Z,9.49
2023-03-13T13:13:43.138Z,9.66
2023-03-13T13:15:15.642Z,9.59
2023-03-13T13:16:50.964Z,9.66
2023-03-13T13:18:30.759Z,9.58
2023-03-13T13:20:16.093Z,9.65
2023-03-13T13:21:56.091Z,9.71
2023-03-13T13:23:39.496Z,9.64
2023-03-13T13:24:59.954Z,9.74
2023-03-13T13:26:21.554Z,9.75
2023-03-13T13:27:54.020Z,9.84
2023-03-13T13:29:14.173Z,9.83
2023-03-13T13:30:48.799Z,9.85
2023-03-13T13:32:32.508Z,9.91
2023-03-13T13:33:53.248Z,9.87
2023-03-13T13:35:25.573Z,9.98
2023-03-13T13:37:09.188Z,9.95
2023-03-13T13:38:41.102Z,10.00
2023-03-13T13:40:03.178Z,9.98
2023-03-13T13:41:30.747Z,9.98
2023-03-13T13:42:51.359Z,9.98
2023-03-13T13:44:19.261Z,10.00
2023-03-13T13:45:41.747Z,9.89
2023-03-13T13:47:16.593Z,9.93
2023-03-13T13:48:39.311Z,9.97
2023-03-13T13:50:11.573Z,10.03
2023-03-13T13:51:32.072Z,10.06
2023-03-13T13:52:52.296Z,10.05
2023-03-13T13:54:12.683Z,10.02
2023-03-13T13:55:52.375Z,9.95
2023-03-13T13:57:26.378Z,9.87
2023-03-13T13:58:58.585Z,9.71
2023-03-13T14:00:24.387Z,9.61
2023-03-13T14:01:59.430Z,9.60
2023-03-13T14:03:40.071Z,9.59
2023-03-13T14:05:12.387Z,9.54
2023-03-13T14:06:35.226Z,9.59
2023-03-13T14:07:55.758Z,9.57
2023-03-13T14:09:18.234Z,9.60
2023-03-13T14:10:50.415Z,9.62
2023-03-13T14:12:11.096Z,9.65
2023-03-13T14:13:50.314Z,9.62
2023-03-13T14:15:11.217Z,9.71
2023-03-13T14:16:31.602Z,9.66
2023-03-13T14:17:55.092Z,9.79
2023-03-13T14:19:18.177Z,9.82
2023-03-13T14:20:38.971Z,9.83
2023-03-13T14:22:13.738Z,9.88
2023-03-13T14:23:45.734Z,9.87
2023-03-13T14:25:25.737Z,9.88
2023-03-13T14:27:05.375Z,9.91
2023-03-13T14:28:59.002Z,9.85
2023-03-13T14:30:31.110Z,9.89
2023-03-13T14:31:52.220Z,9.91
2023-03-13T14:33:26.084Z,9.88
2023-03-13T14:35:09.837Z,9.86
2023-03-13T14:37:17.371Z,9.73
2023-03-13T14:38:53.313Z,9.81
2023-03-13T14:40:13.747Z,9.78
2023-03-13T14:42:05.041Z,9.74
2023-03-13T14:43:36.410Z,9.70
2023-03-13T14:44:58.697Z,9.68
2023-03-13T14:46:20.453Z,9.64
2023-03-13T14:48:04.754Z,9.60
2023-03-13T14:49:36.563Z,9.59
2023-03-13T14:51:15.637Z,9.66
2023-03-13T14:52:48.333Z,9.62
2023-03-13T14:54:11.580Z,9.62
2023-03-13T14:55:43.590Z,9.61
2023-03-13T14:57:15.562Z,9.61
2023-03-13T14:58:55.132Z,9.60
2023-03-13T15:00:27.858Z,9.65
2023-03-13T15:01:53.014Z,9.62
2023-03-13T15:03:20.929Z,9.68
2023-03-13T15:05:00.425Z,9.70
2023-03-13T15:06:28.751Z,9.66
2023-03-13T15:08:10.147Z,9.67
2023-03-13T15:09:32.993Z,9.69
2023-03-13T15:11:17.192Z,9.68
2023-03-13T15:12:49.108Z,9.73
2023-03-13T15:14:21.296Z,9.78
2023-03-13T15:15:55.570Z,9.81
2023-03-13T15:17:34.768Z,9.74
2023-03-13T15:18:57.244Z,9.83
2023-03-13T15:20:24.899Z,9.87
2023-03-13T15:22:04.522Z,9.86
2023-03-13T15:23:31.909Z,9.88
2023-03-13T15:25:16.003Z,9.86
2023-03-13T15:26:49.280Z,9.89
2023-03-13T15:28:32.930Z,9.89
2023-03-13T15:30:07.890Z,9.91
2023-03-13T15:31:39.620Z,9.93
2023-03-13T15:33:02.757Z,9.97
2023-03-13T15:34:46.543Z,9.95
2023-03-13T15:36:30.613Z,9.98
2023-03-13T15:38:14.219Z,9.93
2023-03-13T15:40:00.156Z,9.92
2023-03-13T15:41:34.847Z,9.94
2023-03-13T15:43:19.039Z,9.99
2023-03-13T15:44:39.528Z,9.99
2023-03-13T15:46:21.076Z,10.00
2023-03-13T15:48:05.270Z,10.01
2023-03-13T15:49:25.917Z,10.00
2023-03-13T15:50:46.753Z,9.87
2023-03-13T15:52:19.349Z,9.93
2023-03-13T15:53:39.619Z,9.97
2023-03-13T15:55:15.029Z,9.96
2023-03-13T15:56:38.014Z,9.93
2023-03-13T15:58:12.984Z,9.95
2023-03-13T15:59:34.403Z,9.97
2023-03-13T16:00:57.917Z,9.98
2023-03-13T16:02:32.240Z,9.93
2023-03-13T16:04:07.009Z,9.94
2023-03-13T16:05:28.553Z,9.97
2023-03-13T16:07:00.959Z,9.97
2023-03-13T16:08:36.908Z,9.97
2023-03-13T16:10:22.602Z,9.99
2023-03-13T16:12:08.333Z,9.96
2023-03-13T16:13:51.611Z,9.96
2023-03-13T16:15:35.095Z,9.90
2023-03-13T16:17:18.719Z,9.94
2023-03-13T16:19:10.874Z,9.86
2023-03-13T16:20:54.519Z,10.00
2023-03-13T16:22:38.260Z,10.00
2023-03-13T16:24:22.522Z,9.99
2023-03-13T16:25:54.554Z,9.98
2023-03-13T16:27:26.226Z,10.00
2023-03-13T16:29:16.317Z,10.01
2023-03-13T16:30:55.838Z,10.01
2023-03-13T16:32:33.464Z,10.04
2023-03-13T16:34:08.441Z,10.07
2023-03-13T16:35:39.720Z,10.06
2023-03-13T16:37:11.566Z,10.06
2023-03-13T16:38:50.081Z,10.07
2023-03-13T16:40:33.999Z,10.13
2023-03-13T16:42:17.957Z,10.13
2023-03-13T16:44:10.214Z,10.18
2023-03-13T16:45:49.704Z,10.18
2023-03-13T16:47:33.350Z,10.19
2023-03-13T16:49:05.787Z,10.18
2023-03-13T16:50:58.407Z,10.19
2023-03-13T16:52:33.507Z,10.18
2023-03-13T16:53:54.845Z,10.23
2023-03-13T16:55:27.330Z,10.22
2023-03-13T16:57:11.547Z,10.22
2023-03-13T16:58:33.573Z,10.25
2023-03-13T17:00:21.602Z,10.23
2023-03-13T17:01:54.018Z,10.23
2023-03-13T17:03:14.275Z,10.28
2023-03-13T17:04:46.562Z,10.26
2023-03-13T17:06:19.023Z,10.30
2023-03-13T17:07:51.275Z,10.30
2023-03-13T17:09:35.034Z,10.28
2023-03-13T17:11:12.792Z,10.27
2023-03-13T17:12:53.574Z,10.31
2023-03-13T17:14:25.757Z,10.31
2023-03-13T17:16:05.697Z,10.31
2023-03-13T17:17:28.072Z,10.32
2023-03-13T17:18:59.872Z,10.32
2023-03-13T17:20:34.302Z,10.31
2023-03-13T17:22:18.014Z,10.31
2023-03-13T17:23:50.381Z,10.31
2023-03-13T17:25:42.493Z,10.32
2023-03-13T17:27:14.936Z,10.32
2023-03-13T17:28:37.618Z,10.32
2023-03-13T17:30:21.688Z,10.32
2023-03-13T17:32:06.494Z,10.34
2023-03-13T17:33:41.168Z,10.33
2023-03-13T17:35:25.374Z,10.33
2023-03-13T17:37:12.797Z,10.32
2023-03-13T17:38:56.981Z,10.31
2023-03-13T17:40:40.893Z,10.30
2023-03-13T17:42:13.307Z,10.25
2023-03-13T17:43:56.944Z,10.36
2023-03-13T17:45:37.818Z,10.36
2023-03-13T17:47:12.574Z,10.27
2023-03-13T17:48:40.055Z,10.32
2023-03-13T17:50:13.097Z,10.37
2023-03-13T17:51:45.625Z,10.36
2023-03-13T17:53:17.836Z,10.41
2023-03-13T17:54:45.697Z,10.41
2023-03-13T17:56:08.589Z,10.42
2023-03-13T17:57:39.160Z,10.38
2023-03-13T17:59:11.817Z,10.38
2023-03-13T18:00:46.791Z,10.34
2023-03-13T18:02:08.206Z,10.33
2023-03-13T18:03:28.764Z,10.36
2023-03-13T18:05:11.036Z,10.35
2023-03-13T18:06:43.736Z,10.33
2023-03-13T18:08:09.785Z,10.29
2023-03-13T18:09:59.668Z,10.30
2023-03-13T18:11:32.209Z,10.28
2023-03-13T18:13:04.746Z,10.23
2023-03-13T18:14:37.036Z,10.25
2023-03-13T18:16:12.236Z,10.13
2023-03-13T18:17:32.593Z,10.25
2023-03-13T18:19:16.976Z,10.23
2023-03-13T18:21:00.872Z,10.25
2023-03-13T18:22:40.679Z,10.25
2023-03-13T18:24:13.162Z,10.25
2023-03-13T18:25:36.069Z,10.33
2023-03-13T18:27:18.044Z,10.35
2023-03-13T18:28:59.572Z,10.29
2023-03-13T18:30:44.061Z,10.31
2023-03-13T18:32:07.555Z,10.33
2023-03-13T18:33:35.112Z,10.34
2023-03-13T18:35:14.653Z,10.34
2023-03-13T18:36:47.000Z,10.30
2023-03-13T18:38:18.389Z,10.31
2023-03-13T18:39:50.633Z,10.30
2023-03-13T18:41:39.576Z,10.28
2023-03-13T18:43:23.717Z,10.32
2023-03-13T18:44:56.075Z,10.33
2023-03-13T18:46:30.210Z,10.32
2023-03-13T18:48:16.045Z,10.35
2023-03-13T18:50:01.056Z,10.34
2023-03-13T18:51:33.562Z,10.33
2023-03-13T18:52:57.181Z,10.34
2023-03-13T18:54:25.143Z,10.32
2023-03-13T18:55:47.697Z,10.33
2023-03-13T18:57:19.956Z,10.36
2023-03-13T18:58:40.576Z,10.36
2023-03-13T19:00:12.586Z,10.37
2023-03-13T19:01:39.910Z,10.33
2023-03-13T19:03:19.537Z,10.31
2023-03-13T19:04:42.272Z,10.28
2023-03-13T19:06:18.147Z,10.29
2023-03-13T19:07:50.085Z,10.28
2023-03-13T19:11:14.704Z,10.25
2023-03-13T19:12:58.592Z,10.20
2023-03-13T19:14:33.141Z,10.10
2023-03-13T19:16:07.843Z,10.16
2023-03-13T19:17:28.720Z,10.17
2023-03-13T19:19:08.592Z,10.18
2023-03-13T19:20:52.555Z,10.16
2023-03-13T19:22:25.090Z,10.12
2023-03-13T19:23:57.607Z,10.10
2023-03-13T19:25:36.837Z,10.08
2023-03-13T19:27:05.094Z,10.02
2023-03-13T19:28:25.191Z,10.10
2023-03-13T19:29:47.454Z,10.06
2023-03-13T19:31:18.782Z,10.04
2023-03-13T19:33:13.059Z,10.01
2023-03-13T19:34:33.476Z,10.00
2023-03-13T19:36:16.949Z,9.98
2023-03-13T19:37:37.308Z,9.96
2023-03-13T19:39:18.401Z,9.93
2023-03-13T19:40:50.713Z,9.95
2023-03-13T19:42:34.791Z,9.95
2023-03-13T19:44:06.945Z,9.92
2023-03-13T19:45:27.098Z,9.95
2023-03-13T19:49:18.650Z,9.94
2023-03-13T19:50:52.987Z,9.94
2023-03-13T19:52:36.536Z,9.94
2023-03-13T19:54:17.669Z,9.85
2023-03-13T19:55:37.849Z,9.91
2023-03-13T19:57:09.997Z,9.89
2023-03-13T19:58:50.365Z,9.89
2023-03-13T20:00:15.636Z,9.85
2023-03-13T20:01:47.397Z,9.84
2023-03-13T20:03:31.099Z,9.85
2023-03-13T20:05:10.774Z,9.80
2023-03-13T20:06:45.174Z,9.83
2023-03-13T20:08:17.228Z,9.86
2023-03-13T20:09:49.192Z,9.87
2023-03-13T20:11:17.177Z,9.85
2023-03-13T20:13:00.572Z,9.86
2023-03-13T20:14:32.047Z,9.87
2023-03-13T20:16:12.634Z,9.86
2023-03-13T20:17:44.583Z,9.87
2023-03-13T20:19:28.390Z,9.87
2023-03-13T20:21:20.767Z,9.89
2023-03-13T20:22:43.113Z,9.90
2023-03-13T20:24:27.936Z,9.89
2023-03-13T20:26:11.988Z,9.90
2023-03-13T20:27:39.402Z,9.93
2023-03-13T20:29:11.521Z,9.96
2023-03-13T20:30:43.865Z,9.97
2023-03-13T20:32:18.334Z,9.98
2023-03-13T20:33:39.468Z,10.01
2023-03-13T20:35:20.764Z,10.01
2023-03-13T20:36:43.093Z,9.92
2023-03-13T20:38:16.101Z,9.99
2023-03-13T20:39:48.308Z,10.04
2023-03-13T20:41:08.890Z,10.06
2023-03-13T20:42:36.387Z,10.12
2023-03-13T20:43:59.852Z,10.09
2023-03-13T20:45:20.000Z,10.07
2023-03-13T20:47:00.043Z,10.09
2023-03-13T20:48:27.988Z,10.11
2023-03-13T20:50:00.093Z,10.12
2023-03-13T20:51:47.555Z,10.17
2023-03-13T20:53:19.484Z,10.17
2023-03-13T20:55:11.284Z,10.18
2023-03-13T20:56:35.967Z,10.17
2023-03-13T20:58:19.742Z,10.18
2023-03-13T21:00:13.288Z,10.19
2023-03-13T21:02:01.375Z,10.28
2023-03-13T21:03:34.576Z,10.30
2023-03-13T21:05:17.973Z,10.28